Ossian — WDF2623 — position and weather

sailwx.info

Track history (hours):
 
Tides and Currents Weather Stations Pressure Air Temp Water Temp Dewpoint Dewpoint Depression Visibility Wind Speed Wind Dir Waves Ship Positions

Ossian

Owner: Hartzell, Scott R, Florence, OR. More information available from US FCC via Universal Licensing System and Coast Guard Vessel Documentation Center.

Last reported at 2015-Aug-18 04:33 UTC. Time now 2015-Sep-01 05:58 UTC.
Position N 45°26' W 124°12'.
Warning: this ship's position is 14 days out of date.

Length 26 m.

Type: Fishing. MMSI: 366773410.

Date/timePositionNaut miles runAvg speedWind from/ knotsBaromVisibWave heightAir tempDewpointWater temp
2015-Aug-18 04:33N 45°26' W 124°12'3 8.5
2015-Aug-18 04:11N 45°29' W 124°12'0 8.6
2015-Aug-18 04:09N 45°30' W 124°12'5 8.7
2015-Aug-18 03:33N 45°35' W 124°12'9 8.8
2015-Aug-18 02:33N 45°44' W 124°12'9 9.0
2015-Aug-18 01:33N 45°53' W 124°12'9 9.5
2015-Aug-18 00:34N 46°02' W 124°11'9 9.2
2015-Aug-17 23:33N 46°11' W 124°09'7 7.2
2015-Aug-17 22:33N 46°15' W 124°00'6 6.1
2015-Aug-17 21:34N 46°12' W 123°53'1 1.1
2015-Aug-17 20:34N 46°11' W 123°52'0 0.0
2015-Aug-17 19:34N 46°11' W 123°52'0 0.0
2015-Aug-17 18:34N 46°11' W 123°52'0 0.0
2015-Aug-17 17:33N 46°11' W 123°52'0 0.0
2015-Aug-17 16:34N 46°11' W 123°52'0 0.0
2015-Aug-17 15:33N 46°11' W 123°52'0 0.0
2015-Aug-17 14:34N 46°11' W 123°52'0 0.1
2015-Aug-17 13:33N 46°11' W 123°52'0 0.0
2015-Aug-17 12:34N 46°11' W 123°52'0 0.0
2015-Aug-17 11:33N 46°11' W 123°52'0 0.0
2015-Aug-17 10:33N 46°11' W 123°52'0 0.0
2015-Aug-17 09:33N 46°11' W 123°52'0 0.0
2015-Aug-17 08:34N 46°11' W 123°52'0 0.0
2015-Aug-17 07:33N 46°11' W 123°52'0 0.0
2015-Aug-17 06:33N 46°11' W 123°52'0 0.0
2015-Aug-17 05:34N 46°11' W 123°52'0 0.0
2015-Aug-17 04:34N 46°11' W 123°52'0 0.0
2015-Aug-17 03:34N 46°11' W 123°52'0 0.0
2015-Aug-17 02:34N 46°11' W 123°52'0 0.0
2015-Aug-17 01:34N 46°11' W 123°52'0 0.0
2015-Aug-17 00:33N 46°11' W 123°52'0 0.0
2015-Aug-16 23:33N 46°11' W 123°52'0 0.0
2015-Aug-16 22:34N 46°11' W 123°52'0 0.0
2015-Aug-16 21:34N 46°11' W 123°52'0 0.0
2015-Aug-16 20:33N 46°11' W 123°52'0 0.0
2015-Aug-16 19:34N 46°11' W 123°52'2 2.1
2015-Aug-16 18:33N 46°11' W 123°55'8 8.0
2015-Aug-16 17:33N 46°15' W 124°05'7 6.5
2015-Aug-16 16:33N 46°13' W 124°14'6 6.3
2015-Aug-16 15:33N 46°13' W 124°24'7 6.7
2015-Aug-16 14:33N 46°13' W 124°33'4 4.4
2015-Aug-16 13:33N 46°13' W 124°40'1 1.4
2015-Aug-16 12:33N 46°14' W 124°39'6 5.8
2015-Aug-16 11:33N 46°15' W 124°48'7 6.9
2015-Aug-16 10:33N 46°16' W 124°58'7 6.9
2015-Aug-16 09:33N 46°17' W 125°08'  
Track history (hours):
 
Tides and Currents Weather Stations Pressure Air Temp Water Temp Dewpoint Dewpoint Depression Visibility Wind Speed Wind Dir Waves Ship Positions

Ossian

Owner: Hartzell, Scott R, Florence, OR. More information available from US FCC via Universal Licensing System and Coast Guard Vessel Documentation Center.

Last reported at 2015-Aug-18 04:33 UTC. Time now 2015-Sep-01 05:59 UTC.
Position N 45°26' W 124°12'.
Warning: this ship's position is 14 days out of date.

Length 26 m.

Type: Fishing. MMSI: 366773410.

Date/timePositionNaut miles runAvg speedWind from/ knotsBaromVisibWave heightAir tempDewpointWater temp
2015-Aug-18 04:33N 45°26' W 124°12'3 8.5
2015-Aug-18 04:11N 45°29' W 124°12'0 8.6
2015-Aug-18 04:09N 45°30' W 124°12'5 8.7
2015-Aug-18 03:33N 45°35' W 124°12'9 8.8
2015-Aug-18 02:33N 45°44' W 124°12'9 9.0
2015-Aug-18 01:33N 45°53' W 124°12'9 9.5
2015-Aug-18 00:34N 46°02' W 124°11'9 9.2
2015-Aug-17 23:33N 46°11' W 124°09'7 7.2
2015-Aug-17 22:33N 46°15' W 124°00'6 6.1
2015-Aug-17 21:34N 46°12' W 123°53'1 1.1
2015-Aug-17 20:34N 46°11' W 123°52'0 0.0
2015-Aug-17 19:34N 46°11' W 123°52'0 0.0
2015-Aug-17 18:34N 46°11' W 123°52'0 0.0
2015-Aug-17 17:33N 46°11' W 123°52'0 0.0
2015-Aug-17 16:34N 46°11' W 123°52'0 0.0
2015-Aug-17 15:33N 46°11' W 123°52'0 0.0
2015-Aug-17 14:34N 46°11' W 123°52'0 0.1
2015-Aug-17 13:33N 46°11' W 123°52'0 0.0
2015-Aug-17 12:34N 46°11' W 123°52'0 0.0
2015-Aug-17 11:33N 46°11' W 123°52'0 0.0
2015-Aug-17 10:33N 46°11' W 123°52'0 0.0
2015-Aug-17 09:33N 46°11' W 123°52'0 0.0
2015-Aug-17 08:34N 46°11' W 123°52'0 0.0
2015-Aug-17 07:33N 46°11' W 123°52'0 0.0
2015-Aug-17 06:33N 46°11' W 123°52'0 0.0
2015-Aug-17 05:34N 46°11' W 123°52'0 0.0
2015-Aug-17 04:34N 46°11' W 123°52'0 0.0
2015-Aug-17 03:34N 46°11' W 123°52'0 0.0
2015-Aug-17 02:34N 46°11' W 123°52'0 0.0
2015-Aug-17 01:34N 46°11' W 123°52'0 0.0
2015-Aug-17 00:33N 46°11' W 123°52'0 0.0
2015-Aug-16 23:33N 46°11' W 123°52'0 0.0
2015-Aug-16 22:34N 46°11' W 123°52'0 0.0
2015-Aug-16 21:34N 46°11' W 123°52'0 0.0
2015-Aug-16 20:33N 46°11' W 123°52'0 0.0
2015-Aug-16 19:34N 46°11' W 123°52'2 2.1
2015-Aug-16 18:33N 46°11' W 123°55'8 8.0
2015-Aug-16 17:33N 46°15' W 124°05'7 6.5
2015-Aug-16 16:33N 46°13' W 124°14'6 6.3
2015-Aug-16 15:33N 46°13' W 124°24'7 6.7
2015-Aug-16 14:33N 46°13' W 124°33'4 4.4
2015-Aug-16 13:33N 46°13' W 124°40'1 1.4
2015-Aug-16 12:33N 46°14' W 124°39'6 5.8
2015-Aug-16 11:33N 46°15' W 124°48'7 6.9
2015-Aug-16 10:33N 46°16' W 124°58'7 6.9
2015-Aug-16 09:33N 46°17' W 125°08'  

Dump ship's entire track history